createdAt,value
2018-04-20T03:11:40.446Z,11.60
2018-04-20T03:14:07.936Z,11.50
2018-04-20T03:16:35.398Z,11.40
2018-04-20T03:19:02.885Z,11.30
2018-04-20T03:21:30.341Z,11.20
2018-04-20T03:23:57.891Z,11.00
2018-04-20T03:26:25.415Z,10.90
2018-04-20T03:28:52.874Z,10.70
2018-04-20T03:31:20.329Z,10.60
2018-04-20T03:33:47.820Z,10.50
2018-04-20T03:36:15.289Z,10.40
2018-04-20T03:38:42.835Z,10.30
2018-04-20T03:41:10.303Z,10.20
2018-04-20T03:43:37.787Z,10.10
2018-04-20T03:46:06.011Z,9.90
2018-04-20T03:48:33.494Z,9.90
2018-04-20T03:51:01.716Z,9.80
2018-04-20T03:53:29.212Z,9.80
2018-04-20T03:55:56.664Z,9.90
2018-04-20T03:58:24.135Z,9.90
2018-04-20T04:00:51.592Z,9.80
2018-04-20T04:45:52.501Z,10.50
2018-04-20T05:55:19.875Z,12.40
2018-04-20T05:57:47.371Z,12.40
2018-04-20T06:00:14.842Z,12.30
2018-04-20T06:02:42.321Z,12.30
2018-04-20T06:05:09.789Z,12.30
2018-04-20T06:07:38.034Z,12.40
2018-04-20T06:10:05.492Z,12.40
2018-04-20T06:12:33.751Z,12.50
2018-04-20T06:15:01.262Z,12.50
2018-04-20T06:17:28.745Z,12.60
2018-04-20T06:19:56.202Z,12.60
2018-04-20T06:22:23.665Z,12.70
2018-04-20T06:24:51.152Z,12.70
2018-04-20T06:27:18.609Z,12.80
2018-04-20T06:29:46.091Z,12.80
2018-04-20T06:32:13.591Z,12.90
2018-04-20T06:34:41.075Z,12.90
2018-04-20T06:37:08.536Z,13.00
2018-04-20T06:39:36.033Z,13.10
2018-04-20T06:42:04.251Z,13.30
2018-04-20T06:44:31.742Z,13.20
2018-04-20T06:46:59.205Z,13.40
2018-04-20T06:49:26.730Z,13.40
2018-04-20T06:51:54.208Z,13.50
2018-04-20T06:54:21.665Z,13.60
2018-04-20T06:56:49.200Z,13.60
2018-04-20T06:59:16.634Z,13.70
2018-04-20T07:01:44.879Z,13.90
2018-04-20T07:04:12.340Z,13.80
2018-04-20T07:06:39.825Z,13.80
2018-04-20T07:09:09.433Z,13.80
2018-04-20T07:11:36.917Z,13.80
2018-04-20T07:14:04.369Z,13.90
2018-04-20T07:16:31.861Z,13.90
2018-04-20T07:18:59.313Z,14.00
2018-04-20T07:21:26.788Z,14.10
2018-04-20T07:23:54.276Z,14.20
2018-04-20T07:26:21.811Z,14.20
2018-04-20T07:28:49.265Z,14.30
2018-04-20T07:31:16.754Z,14.40
2018-04-20T07:33:44.220Z,14.50
2018-04-20T07:36:11.688Z,14.60
2018-04-20T07:38:39.174Z,14.70
2018-04-20T07:41:06.626Z,14.80
2018-04-20T07:43:34.099Z,14.80
2018-04-20T07:46:01.555Z,14.90
2018-04-20T07:48:30.560Z,15.00
2018-04-20T07:50:58.106Z,15.00
2018-04-20T07:53:25.672Z,15.10
2018-04-20T07:55:53.171Z,15.00
2018-04-20T07:58:20.667Z,15.10
2018-04-20T08:00:48.135Z,15.20
2018-04-20T08:03:15.695Z,15.30
2018-04-20T08:25:33.967Z,16.00
2018-04-20T09:02:45.216Z,17.00
2018-04-20T09:05:12.695Z,17.00
2018-04-20T09:07:40.156Z,17.10
2018-04-20T09:10:07.640Z,17.30
2018-04-20T09:12:35.101Z,17.40
2018-04-20T09:15:02.576Z,17.50
2018-04-20T09:17:30.037Z,17.70
2018-04-20T09:19:57.522Z,17.60
2018-04-20T09:22:25.735Z,17.90
2018-04-20T09:24:53.228Z,17.90
2018-04-20T09:27:20.708Z,18.00
2018-04-20T09:29:49.010Z,18.30
2018-04-20T09:32:16.416Z,18.20
2018-04-20T09:34:43.899Z,18.30
2018-04-20T09:37:12.125Z,18.50
2018-04-20T09:39:39.608Z,18.50
2018-04-20T09:42:07.072Z,18.60
2018-04-20T09:44:34.568Z,18.70
2018-04-20T09:47:02.795Z,18.90
2018-04-20T09:49:30.287Z,18.90
2018-04-20T09:51:58.538Z,18.90
2018-04-20T09:54:26.054Z,18.90
2018-04-20T09:56:53.538Z,19.00
2018-04-20T09:59:21.011Z,19.20
2018-04-20T10:01:48.485Z,19.30
2018-04-20T10:04:19.477Z,19.40
2018-04-20T10:06:46.952Z,19.50
2018-04-20T10:09:14.427Z,19.70
2018-04-20T10:11:43.096Z,19.80
2018-04-20T10:14:10.556Z,19.70
2018-04-20T10:16:38.058Z,19.80
2018-04-20T10:19:06.342Z,20.00
2018-04-20T10:21:33.817Z,19.90
2018-04-20T10:24:01.271Z,20.00
2018-04-20T10:26:28.765Z,20.10
2018-04-20T10:28:56.216Z,20.20
2018-04-20T10:31:23.697Z,20.20
2018-04-20T10:33:51.174Z,20.20
2018-04-20T10:36:19.409Z,20.30
2018-04-20T10:38:46.910Z,20.30
2018-04-20T10:41:15.151Z,20.40
2018-04-20T10:43:42.651Z,20.40
2018-04-20T10:46:10.874Z,20.70
2018-04-20T10:48:38.518Z,20.70
2018-04-20T10:51:06.015Z,20.80
2018-04-20T10:53:33.525Z,20.80
2018-04-20T11:50:37.077Z,24.10
2018-04-20T11:53:04.576Z,24.10
2018-04-20T11:55:32.037Z,24.30
2018-04-20T11:57:59.520Z,24.50
